sensor_id;sensor_type;location;lat;lon;timestamp;P1;durP1;ratioP1;P2;durP2;ratioP2
485;SDS011;229;48.734;9.340;2023-06-10T00:01:14;15.55;;;12.23;;
485;SDS011;229;48.734;9.340;2023-06-10T00:03:41;14.48;;;12.18;;
485;SDS011;229;48.734;9.340;2023-06-10T00:06:08;12.27;;;10.50;;
485;SDS011;229;48.734;9.340;2023-06-10T00:08:36;12.87;;;10.83;;
485;SDS011;229;48.734;9.340;2023-06-10T00:11:06;13.02;;;10.25;;
485;SDS011;229;48.734;9.340;2023-06-10T00:13:35;11.47;;;10.37;;
485;SDS011;229;48.734;9.340;2023-06-10T00:16:02;14.33;;;11.10;;
485;SDS011;229;48.734;9.340;2023-06-10T00:18:30;10.38;;;9.90;;
485;SDS011;229;48.734;9.340;2023-06-10T00:20:58;12.73;;;11.00;;
485;SDS011;229;48.734;9.340;2023-06-10T00:23:30;11.37;;;10.10;;
485;SDS011;229;48.734;9.340;2023-06-10T00:26:04;12.75;;;9.93;;
485;SDS011;229;48.734;9.340;2023-06-10T00:28:33;12.53;;;10.50;;
485;SDS011;229;48.734;9.340;2023-06-10T00:31:00;12.15;;;9.90;;
485;SDS011;229;48.734;9.340;2023-06-10T00:33:29;13.10;;;9.88;;
485;SDS011;229;48.734;9.340;2023-06-10T00:35:59;12.50;;;10.02;;
485;SDS011;229;48.734;9.340;2023-06-10T00:38:42;12.30;;;9.53;;
485;SDS011;229;48.734;9.340;2023-06-10T00:41:11;10.33;;;9.40;;
485;SDS011;229;48.734;9.340;2023-06-10T00:43:41;10.10;;;9.20;;
485;SDS011;229;48.734;9.340;2023-06-10T00:46:20;10.52;;;9.18;;
485;SDS011;229;48.734;9.340;2023-06-10T00:48:48;10.45;;;9.27;;
485;SDS011;229;48.734;9.340;2023-06-10T00:51:17;11.40;;;9.25;;
485;SDS011;229;48.734;9.340;2023-06-10T00:53:47;10.07;;;8.90;;
485;SDS011;229;48.734;9.340;2023-06-10T00:56:15;10.93;;;9.45;;
485;SDS011;229;48.734;9.340;2023-06-10T00:58:44;9.63;;;8.65;;
485;SDS011;229;48.734;9.340;2023-06-10T01:01:11;11.18;;;8.45;;
485;SDS011;229;48.734;9.340;2023-06-10T01:03:38;13.05;;;9.25;;
485;SDS011;229;48.734;9.340;2023-06-10T01:06:07;11.98;;;9.50;;
485;SDS011;229;48.734;9.340;2023-06-10T01:08:38;9.75;;;9.32;;
485;SDS011;229;48.734;9.340;2023-06-10T01:11:14;9.73;;;8.75;;
485;SDS011;229;48.734;9.340;2023-06-10T01:13:46;10.20;;;8.60;;
485;SDS011;229;48.734;9.340;2023-06-10T01:16:14;11.23;;;9.45;;
485;SDS011;229;48.734;9.340;2023-06-10T01:18:41;9.43;;;8.90;;
485;SDS011;229;48.734;9.340;2023-06-10T01:21:13;9.65;;;7.75;;
485;SDS011;229;48.734;9.340;2023-06-10T01:23:40;11.13;;;8.50;;
485;SDS011;229;48.734;9.340;2023-06-10T01:26:09;11.05;;;8.63;;
485;SDS011;229;48.734;9.340;2023-06-10T01:28:38;10.20;;;8.57;;
485;SDS011;229;48.734;9.340;2023-06-10T01:31:09;14.63;;;10.23;;
485;SDS011;229;48.734;9.340;2023-06-10T01:33:40;9.13;;;8.27;;
485;SDS011;229;48.734;9.340;2023-06-10T01:36:08;9.15;;;8.65;;
485;SDS011;229;48.734;9.340;2023-06-10T01:38:39;9.07;;;8.35;;
485;SDS011;229;48.734;9.340;2023-06-10T01:41:06;10.82;;;9.68;;
485;SDS011;229;48.734;9.340;2023-06-10T01:43:34;12.18;;;8.32;;
485;SDS011;229;48.734;9.340;2023-06-10T01:46:01;9.77;;;8.90;;
485;SDS011;229;48.734;9.340;2023-06-10T01:48:28;10.57;;;9.75;;
485;SDS011;229;48.734;9.340;2023-06-10T01:50:55;10.93;;;8.93;;
485;SDS011;229;48.734;9.340;2023-06-10T01:53:23;8.15;;;7.75;;
485;SDS011;229;48.734;9.340;2023-06-10T01:55:51;10.20;;;8.38;;
485;SDS011;229;48.734;9.340;2023-06-10T01:58:18;9.70;;;8.60;;
485;SDS011;229;48.734;9.340;2023-06-10T02:00:46;10.73;;;9.00;;
485;SDS011;229;48.734;9.340;2023-06-10T02:03:13;9.63;;;8.07;;
485;SDS011;229;48.734;9.340;2023-06-10T02:05:40;9.18;;;8.68;;
485;SDS011;229;48.734;9.340;2023-06-10T02:08:07;10.52;;;8.85;;
485;SDS011;229;48.734;9.340;2023-06-10T02:10:35;10.00;;;9.00;;
485;SDS011;229;48.734;9.340;2023-06-10T02:13:03;9.38;;;8.40;;
485;SDS011;229;48.734;9.340;2023-06-10T02:15:30;10.75;;;9.48;;
485;SDS011;229;48.734;9.340;2023-06-10T02:17:58;11.15;;;9.70;;
485;SDS011;229;48.734;9.340;2023-06-10T02:20:26;11.25;;;9.05;;
485;SDS011;229;48.734;9.340;2023-06-10T02:22:53;9.63;;;8.38;;
485;SDS011;229;48.734;9.340;2023-06-10T02:25:20;9.55;;;8.77;;
485;SDS011;229;48.734;9.340;2023-06-10T02:27:47;9.27;;;8.82;;
485;SDS011;229;48.734;9.340;2023-06-10T02:30:16;9.27;;;7.85;;
485;SDS011;229;48.734;9.340;2023-06-10T02:32:43;9.13;;;8.63;;
485;SDS011;229;48.734;9.340;2023-06-10T02:35:13;10.18;;;8.73;;
485;SDS011;229;48.734;9.340;2023-06-10T02:37:40;10.80;;;9.05;;
485;SDS011;229;48.734;9.340;2023-06-10T02:40:08;13.10;;;9.07;;
485;SDS011;229;48.734;9.340;2023-06-10T02:42:36;9.25;;;8.32;;
485;SDS011;229;48.734;9.340;2023-06-10T02:45:03;11.27;;;8.30;;
485;SDS011;229;48.734;9.340;2023-06-10T02:47:32;8.70;;;8.23;;
485;SDS011;229;48.734;9.340;2023-06-10T02:49:59;9.57;;;8.13;;
485;SDS011;229;48.734;9.340;2023-06-10T02:52:27;10.55;;;8.40;;
485;SDS011;229;48.734;9.340;2023-06-10T02:54:55;12.30;;;9.00;;
485;SDS011;229;48.734;9.340;2023-06-10T02:57:22;9.90;;;8.25;;
485;SDS011;229;48.734;9.340;2023-06-10T02:59:49;11.93;;;8.60;;
485;SDS011;229;48.734;9.340;2023-06-10T03:02:18;11.70;;;9.00;;
485;SDS011;229;48.734;9.340;2023-06-10T03:04:48;10.40;;;8.50;;
485;SDS011;229;48.734;9.340;2023-06-10T03:07:16;12.48;;;8.65;;
485;SDS011;229;48.734;9.340;2023-06-10T03:09:43;9.13;;;8.40;;
485;SDS011;229;48.734;9.340;2023-06-10T03:12:11;9.32;;;8.45;;
485;SDS011;229;48.734;9.340;2023-06-10T03:14:38;8.48;;;7.93;;
485;SDS011;229;48.734;9.340;2023-06-10T03:17:05;8.48;;;7.65;;
485;SDS011;229;48.734;9.340;2023-06-10T03:19:33;10.35;;;8.27;;
485;SDS011;229;48.734;9.340;2023-06-10T03:22:11;10.02;;;8.80;;
485;SDS011;229;48.734;9.340;2023-06-10T03:24:38;10.05;;;7.90;;
485;SDS011;229;48.734;9.340;2023-06-10T03:27:06;11.65;;;8.48;;
485;SDS011;229;48.734;9.340;2023-06-10T03:29:33;9.90;;;8.40;;
485;SDS011;229;48.734;9.340;2023-06-10T03:32:00;10.52;;;8.30;;
485;SDS011;229;48.734;9.340;2023-06-10T03:34:28;11.93;;;8.57;;
485;SDS011;229;48.734;9.340;2023-06-10T03:36:55;10.95;;;8.48;;
485;SDS011;229;48.734;9.340;2023-06-10T03:39:25;11.07;;;8.45;;
485;SDS011;229;48.734;9.340;2023-06-10T03:41:54;10.30;;;7.63;;
485;SDS011;229;48.734;9.340;2023-06-10T03:44:21;11.45;;;8.55;;
485;SDS011;229;48.734;9.340;2023-06-10T03:46:48;12.27;;;9.23;;
485;SDS011;229;48.734;9.340;2023-06-10T03:49:16;12.10;;;9.15;;
485;SDS011;229;48.734;9.340;2023-06-10T03:51:43;12.60;;;8.25;;
485;SDS011;229;48.734;9.340;2023-06-10T03:54:10;14.52;;;8.98;;
485;SDS011;229;48.734;9.340;2023-06-10T03:56:39;17.52;;;9.07;;
485;SDS011;229;48.734;9.340;2023-06-10T03:59:06;10.55;;;8.93;;
485;SDS011;229;48.734;9.340;2023-06-10T04:01:33;15.35;;;9.70;;
485;SDS011;229;48.734;9.340;2023-06-10T04:04:02;12.32;;;8.40;;
485;SDS011;229;48.734;9.340;2023-06-10T04:06:29;13.43;;;8.88;;
485;SDS011;229;48.734;9.340;2023-06-10T04:08:57;11.93;;;8.65;;
485;SDS011;229;48.734;9.340;2023-06-10T04:11:24;10.90;;;9.35;;
485;SDS011;229;48.734;9.340;2023-06-10T04:13:52;13.18;;;8.30;;
485;SDS011;229;48.734;9.340;2023-06-10T04:16:20;12.48;;;8.90;;
485;SDS011;229;48.734;9.340;2023-06-10T04:18:47;15.93;;;9.07;;
485;SDS011;229;48.734;9.340;2023-06-10T04:21:14;11.32;;;8.50;;
485;SDS011;229;48.734;9.340;2023-06-10T04:23:41;15.35;;;8.93;;
485;SDS011;229;48.734;9.340;2023-06-10T04:26:09;10.38;;;8.20;;
485;SDS011;229;48.734;9.340;2023-06-10T04:28:37;13.75;;;8.55;;
485;SDS011;229;48.734;9.340;2023-06-10T04:31:05;10.68;;;8.73;;
485;SDS011;229;48.734;9.340;2023-06-10T04:33:33;12.82;;;8.40;;
485;SDS011;229;48.734;9.340;2023-06-10T04:36:00;13.07;;;8.95;;
485;SDS011;229;48.734;9.340;2023-06-10T04:38:27;13.05;;;8.45;;
485;SDS011;229;48.734;9.340;2023-06-10T04:40:56;13.45;;;8.50;;
485;SDS011;229;48.734;9.340;2023-06-10T04:43:23;14.00;;;8.90;;
485;SDS011;229;48.734;9.340;2023-06-10T04:45:50;10.25;;;7.88;;
485;SDS011;229;48.734;9.340;2023-06-10T04:48:19;11.75;;;8.57;;
485;SDS011;229;48.734;9.340;2023-06-10T04:50:46;11.35;;;8.52;;
485;SDS011;229;48.734;9.340;2023-06-10T04:53:13;13.80;;;8.90;;
485;SDS011;229;48.734;9.340;2023-06-10T04:55:40;9.80;;;8.10;;
485;SDS011;229;48.734;9.340;2023-06-10T04:58:09;11.23;;;8.05;;
485;SDS011;229;48.734;9.340;2023-06-10T05:00:36;12.40;;;8.18;;
485;SDS011;229;48.734;9.340;2023-06-10T05:03:03;9.07;;;8.25;;
485;SDS011;229;48.734;9.340;2023-06-10T05:05:32;12.43;;;8.15;;
485;SDS011;229;48.734;9.340;2023-06-10T05:07:59;11.13;;;9.38;;
485;SDS011;229;48.734;9.340;2023-06-10T05:10:26;12.32;;;9.75;;
485;SDS011;229;48.734;9.340;2023-06-10T05:12:56;11.55;;;10.30;;
485;SDS011;229;48.734;9.340;2023-06-10T05:15:24;14.52;;;10.18;;
485;SDS011;229;48.734;9.340;2023-06-10T05:17:51;11.45;;;10.85;;
485;SDS011;229;48.734;9.340;2023-06-10T05:20:18;13.23;;;11.25;;
485;SDS011;229;48.734;9.340;2023-06-10T05:22:47;13.60;;;10.23;;
485;SDS011;229;48.734;9.340;2023-06-10T05:25:14;13.85;;;10.95;;
485;SDS011;229;48.734;9.340;2023-06-10T05:27:41;12.18;;;10.70;;
485;SDS011;229;48.734;9.340;2023-06-10T05:30:09;13.93;;;10.65;;
485;SDS011;229;48.734;9.340;2023-06-10T05:32:37;16.10;;;10.70;;
485;SDS011;229;48.734;9.340;2023-06-10T05:35:04;14.38;;;10.85;;
485;SDS011;229;48.734;9.340;2023-06-10T05:37:33;14.73;;;11.70;;
485;SDS011;229;48.734;9.340;2023-06-10T05:40:03;15.32;;;10.60;;
485;SDS011;229;48.734;9.340;2023-06-10T05:42:31;14.45;;;10.70;;
485;SDS011;229;48.734;9.340;2023-06-10T05:44:58;15.95;;;11.63;;
485;SDS011;229;48.734;9.340;2023-06-10T05:47:25;13.95;;;10.70;;
485;SDS011;229;48.734;9.340;2023-06-10T05:49:52;12.70;;;11.05;;
485;SDS011;229;48.734;9.340;2023-06-10T05:52:20;18.63;;;11.50;;
485;SDS011;229;48.734;9.340;2023-06-10T05:54:48;16.92;;;11.80;;
485;SDS011;229;48.734;9.340;2023-06-10T05:57:17;12.38;;;10.40;;
485;SDS011;229;48.734;9.340;2023-06-10T05:59:45;14.05;;;10.23;;
485;SDS011;229;48.734;9.340;2023-06-10T06:02:12;12.50;;;10.20;;
485;SDS011;229;48.734;9.340;2023-06-10T06:04:40;11.80;;;9.88;;
485;SDS011;229;48.734;9.340;2023-06-10T06:07:07;9.43;;;8.55;;
485;SDS011;229;48.734;9.340;2023-06-10T06:09:34;11.90;;;9.82;;
485;SDS011;229;48.734;9.340;2023-06-10T06:12:01;11.07;;;9.40;;
485;SDS011;229;48.734;9.340;2023-06-10T06:14:31;11.10;;;9.90;;
485;SDS011;229;48.734;9.340;2023-06-10T06:16:58;11.13;;;9.40;;
485;SDS011;229;48.734;9.340;2023-06-10T06:19:25;11.40;;;9.20;;
485;SDS011;229;48.734;9.340;2023-06-10T06:21:52;12.33;;;9.03;;
485;SDS011;229;48.734;9.340;2023-06-10T06:24:19;12.00;;;8.60;;
485;SDS011;229;48.734;9.340;2023-06-10T06:26:47;9.83;;;9.30;;
485;SDS011;229;48.734;9.340;2023-06-10T06:29:14;10.90;;;8.53;;
485;SDS011;229;48.734;9.340;2023-06-10T06:31:42;10.67;;;8.53;;
485;SDS011;229;48.734;9.340;2023-06-10T06:34:10;9.90;;;8.47;;
485;SDS011;229;48.734;9.340;2023-06-10T06:36:37;9.23;;;7.97;;
485;SDS011;229;48.734;9.340;2023-06-10T06:39:04;8.17;;;7.80;;
485;SDS011;229;48.734;9.340;2023-06-10T06:41:31;12.53;;;8.80;;
485;SDS011;229;48.734;9.340;2023-06-10T06:43:58;8.70;;;7.73;;
485;SDS011;229;48.734;9.340;2023-06-10T06:46:26;12.07;;;7.90;;
485;SDS011;229;48.734;9.340;2023-06-10T06:48:54;8.93;;;8.00;;
485;SDS011;229;48.734;9.340;2023-06-10T06:51:22;7.93;;;7.57;;
485;SDS011;229;48.734;9.340;2023-06-10T06:53:49;10.70;;;7.50;;
485;SDS011;229;48.734;9.340;2023-06-10T06:56:19;8.97;;;7.50;;
485;SDS011;229;48.734;9.340;2023-06-10T06:58:47;9.70;;;7.57;;
485;SDS011;229;48.734;9.340;2023-06-10T07:01:14;9.20;;;8.53;;
485;SDS011;229;48.734;9.340;2023-06-10T07:03:41;11.37;;;7.50;;
485;SDS011;229;48.734;9.340;2023-06-10T07:06:13;9.77;;;8.40;;
485;SDS011;229;48.734;9.340;2023-06-10T07:08:40;9.43;;;7.40;;
485;SDS011;229;48.734;9.340;2023-06-10T07:11:07;8.70;;;7.53;;
485;SDS011;229;48.734;9.340;2023-06-10T07:13:35;7.30;;;6.47;;
485;SDS011;229;48.734;9.340;2023-06-10T07:16:02;7.23;;;6.83;;
485;SDS011;229;48.734;9.340;2023-06-10T07:18:32;7.70;;;7.30;;
485;SDS011;229;48.734;9.340;2023-06-10T07:20:59;8.50;;;6.60;;
485;SDS011;229;48.734;9.340;2023-06-10T07:23:28;7.93;;;6.70;;
485;SDS011;229;48.734;9.340;2023-06-10T07:25:55;6.60;;;6.20;;
485;SDS011;229;48.734;9.340;2023-06-10T07:28:22;8.77;;;6.20;;
485;SDS011;229;48.734;9.340;2023-06-10T07:30:50;7.70;;;6.47;;
485;SDS011;229;48.734;9.340;2023-06-10T07:33:17;6.77;;;6.37;;
485;SDS011;229;48.734;9.340;2023-06-10T07:35:44;7.53;;;6.00;;
485;SDS011;229;48.734;9.340;2023-06-10T07:38:11;6.07;;;5.77;;
485;SDS011;229;48.734;9.340;2023-06-10T07:40:40;10.83;;;6.07;;
485;SDS011;229;48.734;9.340;2023-06-10T07:43:07;7.07;;;6.47;;
485;SDS011;229;48.734;9.340;2023-06-10T07:45:34;6.60;;;6.20;;
485;SDS011;229;48.734;9.340;2023-06-10T07:48:01;6.90;;;6.60;;
485;SDS011;229;48.734;9.340;2023-06-10T07:50:28;7.20;;;6.63;;
485;SDS011;229;48.734;9.340;2023-06-10T07:52:56;6.90;;;6.50;;
485;SDS011;229;48.734;9.340;2023-06-10T07:55:23;6.90;;;6.50;;
485;SDS011;229;48.734;9.340;2023-06-10T07:57:52;6.80;;;5.87;;
485;SDS011;229;48.734;9.340;2023-06-10T08:00:19;7.13;;;6.73;;
485;SDS011;229;48.734;9.340;2023-06-10T08:02:47;6.57;;;6.17;;
485;SDS011;229;48.734;9.340;2023-06-10T08:05:15;7.13;;;6.07;;
485;SDS011;229;48.734;9.340;2023-06-10T08:07:42;6.37;;;6.00;;
485;SDS011;229;48.734;9.340;2023-06-10T08:10:09;6.07;;;5.73;;
485;SDS011;229;48.734;9.340;2023-06-10T08:12:37;6.20;;;5.90;;
485;SDS011;229;48.734;9.340;2023-06-10T08:15:06;8.03;;;6.50;;
485;SDS011;229;48.734;9.340;2023-06-10T08:17:33;6.90;;;6.43;;
485;SDS011;229;48.734;9.340;2023-06-10T08:20:01;7.57;;;7.17;;
485;SDS011;229;48.734;9.340;2023-06-10T08:22:28;7.00;;;6.60;;
485;SDS011;229;48.734;9.340;2023-06-10T08:24:58;7.13;;;6.73;;
485;SDS011;229;48.734;9.340;2023-06-10T08:27:29;6.53;;;6.17;;
485;SDS011;229;48.734;9.340;2023-06-10T08:29:56;6.47;;;5.67;;
485;SDS011;229;48.734;9.340;2023-06-10T08:32:26;5.50;;;5.20;;
485;SDS011;229;48.734;9.340;2023-06-10T08:34:54;9.33;;;6.20;;
485;SDS011;229;48.734;9.340;2023-06-10T08:37:21;6.10;;;5.83;;
485;SDS011;229;48.734;9.340;2023-06-10T08:39:48;6.13;;;5.83;;
485;SDS011;229;48.734;9.340;2023-06-10T08:42:17;6.17;;;5.87;;
485;SDS011;229;48.734;9.340;2023-06-10T08:44:49;5.80;;;5.50;;
485;SDS011;229;48.734;9.340;2023-06-10T08:47:20;6.90;;;6.50;;
485;SDS011;229;48.734;9.340;2023-06-10T08:49:50;7.10;;;6.00;;
485;SDS011;229;48.734;9.340;2023-06-10T08:52:19;8.00;;;5.53;;
485;SDS011;229;48.734;9.340;2023-06-10T08:54:48;9.23;;;5.90;;
485;SDS011;229;48.734;9.340;2023-06-10T08:57:16;6.50;;;5.40;;
485;SDS011;229;48.734;9.340;2023-06-10T08:59:45;5.90;;;5.60;;
485;SDS011;229;48.734;9.340;2023-06-10T09:02:13;7.97;;;7.03;;
485;SDS011;229;48.734;9.340;2023-06-10T09:04:41;6.03;;;5.73;;
485;SDS011;229;48.734;9.340;2023-06-10T09:07:10;8.70;;;6.43;;
485;SDS011;229;48.734;9.340;2023-06-10T09:09:39;6.87;;;6.00;;
485;SDS011;229;48.734;9.340;2023-06-10T09:12:07;6.83;;;6.43;;
485;SDS011;229;48.734;9.340;2023-06-10T09:14:34;6.07;;;5.80;;
485;SDS011;229;48.734;9.340;2023-06-10T09:17:01;7.30;;;6.10;;
485;SDS011;229;48.734;9.340;2023-06-10T09:19:29;8.77;;;5.60;;
485;SDS011;229;48.734;9.340;2023-06-10T09:21:56;7.30;;;6.80;;
485;SDS011;229;48.734;9.340;2023-06-10T09:24:25;6.47;;;6.07;;
485;SDS011;229;48.734;9.340;2023-06-10T09:26:54;6.83;;;5.97;;
485;SDS011;229;48.734;9.340;2023-06-10T09:29:28;6.10;;;5.80;;
485;SDS011;229;48.734;9.340;2023-06-10T09:31:55;6.60;;;6.20;;
485;SDS011;229;48.734;9.340;2023-06-10T09:34:24;7.27;;;6.47;;
485;SDS011;229;48.734;9.340;2023-06-10T09:36:52;9.30;;;6.00;;
485;SDS011;229;48.734;9.340;2023-06-10T09:39:20;6.00;;;5.70;;
485;SDS011;229;48.734;9.340;2023-06-10T09:41:49;6.87;;;6.27;;
485;SDS011;229;48.734;9.340;2023-06-10T09:44:17;6.87;;;6.23;;
485;SDS011;229;48.734;9.340;2023-06-10T09:46:45;7.03;;;5.27;;
485;SDS011;229;48.734;9.340;2023-06-10T09:49:12;5.80;;;5.50;;
485;SDS011;229;48.734;9.340;2023-06-10T09:51:48;5.97;;;5.67;;
485;SDS011;229;48.734;9.340;2023-06-10T09:54:16;6.60;;;5.63;;
485;SDS011;229;48.734;9.340;2023-06-10T09:56:46;7.00;;;6.13;;
485;SDS011;229;48.734;9.340;2023-06-10T09:59:15;5.40;;;5.07;;
485;SDS011;229;48.734;9.340;2023-06-10T10:01:42;6.90;;;5.93;;
485;SDS011;229;48.734;9.340;2023-06-10T10:04:11;6.60;;;6.20;;
485;SDS011;229;48.734;9.340;2023-06-10T10:06:38;6.30;;;5.97;;
485;SDS011;229;48.734;9.340;2023-06-10T10:09:06;9.17;;;6.77;;
485;SDS011;229;48.734;9.340;2023-06-10T10:11:33;8.03;;;5.77;;
485;SDS011;229;48.734;9.340;2023-06-10T10:14:01;7.50;;;5.97;;
485;SDS011;229;48.734;9.340;2023-06-10T10:16:35;7.73;;;6.30;;
485;SDS011;229;48.734;9.340;2023-06-10T10:19:07;9.17;;;6.40;;
485;SDS011;229;48.734;9.340;2023-06-10T10:21:36;9.73;;;6.50;;
485;SDS011;229;48.734;9.340;2023-06-10T10:24:05;6.33;;;5.80;;
485;SDS011;229;48.734;9.340;2023-06-10T10:26:34;7.03;;;6.37;;
485;SDS011;229;48.734;9.340;2023-06-10T10:29:05;8.80;;;5.80;;
485;SDS011;229;48.734;9.340;2023-06-10T10:31:36;9.13;;;5.70;;
485;SDS011;229;48.734;9.340;2023-06-10T10:34:06;8.20;;;6.67;;
485;SDS011;229;48.734;9.340;2023-06-10T10:36:34;6.63;;;6.00;;
485;SDS011;229;48.734;9.340;2023-06-10T10:39:02;7.30;;;6.23;;
485;SDS011;229;48.734;9.340;2023-06-10T10:41:29;9.30;;;5.90;;
485;SDS011;229;48.734;9.340;2023-06-10T10:43:57;8.33;;;5.93;;
485;SDS011;229;48.734;9.340;2023-06-10T10:46:24;6.00;;;5.67;;
485;SDS011;229;48.734;9.340;2023-06-10T10:48:54;9.03;;;5.67;;
485;SDS011;229;48.734;9.340;2023-06-10T10:51:23;6.50;;;6.10;;
485;SDS011;229;48.734;9.340;2023-06-10T10:56:36;6.53;;;6.13;;
485;SDS011;229;48.734;9.340;2023-06-10T10:59:03;7.43;;;5.90;;
485;SDS011;229;48.734;9.340;2023-06-10T11:01:39;6.43;;;6.03;;
485;SDS011;229;48.734;9.340;2023-06-10T11:04:08;6.20;;;5.90;;
485;SDS011;229;48.734;9.340;2023-06-10T11:06:35;6.00;;;5.73;;
485;SDS011;229;48.734;9.340;2023-06-10T11:09:24;6.43;;;6.10;;
485;SDS011;229;48.734;9.340;2023-06-10T11:11:52;7.30;;;6.20;;
485;SDS011;229;48.734;9.340;2023-06-10T11:14:26;7.03;;;5.90;;
485;SDS011;229;48.734;9.340;2023-06-10T11:16:56;6.80;;;6.30;;
485;SDS011;229;48.734;9.340;2023-06-10T11:19:34;6.97;;;6.57;;
485;SDS011;229;48.734;9.340;2023-06-10T11:22:02;7.13;;;6.07;;
485;SDS011;229;48.734;9.340;2023-06-10T11:24:29;6.20;;;5.73;;
485;SDS011;229;48.734;9.340;2023-06-10T11:29:38;7.47;;;7.07;;
485;SDS011;229;48.734;9.340;2023-06-10T11:32:06;6.87;;;6.23;;
485;SDS011;229;48.734;9.340;2023-06-10T11:34:35;6.90;;;6.43;;
485;SDS011;229;48.734;9.340;2023-06-10T11:37:02;6.53;;;6.13;;
485;SDS011;229;48.734;9.340;2023-06-10T11:39:29;6.63;;;6.23;;
485;SDS011;229;48.734;9.340;2023-06-10T11:41:56;8.50;;;6.50;;
485;SDS011;229;48.734;9.340;2023-06-10T11:44:27;5.97;;;5.67;;
485;SDS011;229;48.734;9.340;2023-06-10T11:46:56;6.27;;;5.93;;
485;SDS011;229;48.734;9.340;2023-06-10T11:49:23;6.27;;;5.83;;
485;SDS011;229;48.734;9.340;2023-06-10T11:51:51;6.03;;;5.80;;
485;SDS011;229;48.734;9.340;2023-06-10T11:54:18;8.50;;;5.90;;
485;SDS011;229;48.734;9.340;2023-06-10T11:56:47;6.70;;;6.33;;
485;SDS011;229;48.734;9.340;2023-06-10T11:59:14;6.37;;;6.00;;
485;SDS011;229;48.734;9.340;2023-06-10T12:01:42;6.13;;;5.80;;
485;SDS011;229;48.734;9.340;2023-06-10T12:04:10;9.27;;;6.40;;
485;SDS011;229;48.734;9.340;2023-06-10T12:06:38;6.73;;;5.90;;
485;SDS011;229;48.734;9.340;2023-06-10T12:09:07;6.43;;;5.97;;
485;SDS011;229;48.734;9.340;2023-06-10T12:11:39;6.43;;;6.03;;
485;SDS011;229;48.734;9.340;2023-06-10T12:14:07;7.73;;;6.87;;
485;SDS011;229;48.734;9.340;2023-06-10T12:16:34;7.23;;;6.37;;
485;SDS011;229;48.734;9.340;2023-06-10T12:19:01;7.73;;;6.80;;
485;SDS011;229;48.734;9.340;2023-06-10T12:21:29;6.73;;;6.33;;
485;SDS011;229;48.734;9.340;2023-06-10T12:24:00;8.40;;;6.67;;
485;SDS011;229;48.734;9.340;2023-06-10T12:26:37;7.00;;;6.60;;
485;SDS011;229;48.734;9.340;2023-06-10T12:29:17;8.70;;;7.50;;
485;SDS011;229;48.734;9.340;2023-06-10T12:31:52;6.57;;;6.17;;
485;SDS011;229;48.734;9.340;2023-06-10T12:34:19;6.73;;;6.33;;
485;SDS011;229;48.734;9.340;2023-06-10T12:36:48;6.40;;;6.00;;
485;SDS011;229;48.734;9.340;2023-06-10T12:39:15;6.67;;;6.27;;
485;SDS011;229;48.734;9.340;2023-06-10T12:41:48;7.13;;;6.13;;
485;SDS011;229;48.734;9.340;2023-06-10T12:44:15;6.40;;;6.00;;
485;SDS011;229;48.734;9.340;2023-06-10T12:46:42;5.70;;;5.40;;
485;SDS011;229;48.734;9.340;2023-06-10T12:49:18;5.90;;;5.60;;
485;SDS011;229;48.734;9.340;2023-06-10T12:51:47;5.93;;;5.63;;
485;SDS011;229;48.734;9.340;2023-06-10T12:54:14;7.50;;;5.70;;
485;SDS011;229;48.734;9.340;2023-06-10T12:56:41;6.03;;;5.73;;
485;SDS011;229;48.734;9.340;2023-06-10T12:59:10;5.77;;;5.50;;
485;SDS011;229;48.734;9.340;2023-06-10T13:01:37;6.83;;;6.27;;
485;SDS011;229;48.734;9.340;2023-06-10T13:04:05;6.80;;;6.50;;
485;SDS011;229;48.734;9.340;2023-06-10T13:06:32;5.60;;;5.30;;
485;SDS011;229;48.734;9.340;2023-06-10T13:09:02;7.27;;;6.10;;
485;SDS011;229;48.734;9.340;2023-06-10T13:11:31;5.63;;;5.33;;
485;SDS011;229;48.734;9.340;2023-06-10T13:13:58;9.30;;;5.43;;
485;SDS011;229;48.734;9.340;2023-06-10T13:16:27;5.40;;;5.10;;
485;SDS011;229;48.734;9.340;2023-06-10T13:18:55;6.10;;;5.40;;
485;SDS011;229;48.734;9.340;2023-06-10T13:21:22;5.80;;;5.50;;
485;SDS011;229;48.734;9.340;2023-06-10T13:23:49;5.60;;;5.30;;
485;SDS011;229;48.734;9.340;2023-06-10T13:26:17;8.53;;;5.70;;
485;SDS011;229;48.734;9.340;2023-06-10T13:28:44;7.13;;;6.30;;
485;SDS011;229;48.734;9.340;2023-06-10T13:31:11;5.60;;;5.30;;
485;SDS011;229;48.734;9.340;2023-06-10T13:33:40;6.50;;;5.90;;
485;SDS011;229;48.734;9.340;2023-06-10T13:36:08;6.10;;;5.50;;
485;SDS011;229;48.734;9.340;2023-06-10T13:38:37;6.07;;;5.57;;
485;SDS011;229;48.734;9.340;2023-06-10T13:41:04;6.70;;;6.30;;
485;SDS011;229;48.734;9.340;2023-06-10T13:43:32;6.90;;;6.50;;
485;SDS011;229;48.734;9.340;2023-06-10T13:45:59;6.10;;;5.83;;
485;SDS011;229;48.734;9.340;2023-06-10T13:48:26;7.90;;;6.47;;
485;SDS011;229;48.734;9.340;2023-06-10T13:50:54;5.90;;;4.90;;
485;SDS011;229;48.734;9.340;2023-06-10T13:53:22;11.10;;;7.23;;
485;SDS011;229;48.734;9.340;2023-06-10T13:55:49;6.10;;;5.80;;
485;SDS011;229;48.734;9.340;2023-06-10T13:58:16;7.60;;;6.20;;
485;SDS011;229;48.734;9.340;2023-06-10T14:00:44;6.90;;;6.30;;
485;SDS011;229;48.734;9.340;2023-06-10T14:03:12;7.33;;;6.40;;
485;SDS011;229;48.734;9.340;2023-06-10T14:05:39;6.97;;;6.20;;
485;SDS011;229;48.734;9.340;2023-06-10T14:08:08;6.47;;;6.07;;
485;SDS011;229;48.734;9.340;2023-06-10T14:10:35;7.00;;;6.33;;
485;SDS011;229;48.734;9.340;2023-06-10T14:13:02;6.40;;;5.73;;
485;SDS011;229;48.734;9.340;2023-06-10T14:15:30;6.43;;;6.03;;
485;SDS011;229;48.734;9.340;2023-06-10T14:17:57;6.97;;;6.23;;
485;SDS011;229;48.734;9.340;2023-06-10T14:20:24;6.70;;;6.30;;
485;SDS011;229;48.734;9.340;2023-06-10T14:22:56;10.80;;;6.30;;
485;SDS011;229;48.734;9.340;2023-06-10T14:25:24;6.60;;;6.20;;
485;SDS011;229;48.734;9.340;2023-06-10T14:27:51;6.97;;;6.57;;
485;SDS011;229;48.734;9.340;2023-06-10T14:30:19;6.47;;;6.07;;
485;SDS011;229;48.734;9.340;2023-06-10T14:32:46;7.13;;;6.57;;
485;SDS011;229;48.734;9.340;2023-06-10T14:35:13;7.00;;;6.60;;
485;SDS011;229;48.734;9.340;2023-06-10T14:37:40;8.10;;;6.97;;
485;SDS011;229;48.734;9.340;2023-06-10T14:40:08;7.47;;;6.83;;
485;SDS011;229;48.734;9.340;2023-06-10T14:42:37;7.20;;;6.80;;
485;SDS011;229;48.734;9.340;2023-06-10T14:45:04;8.87;;;7.27;;
485;SDS011;229;48.734;9.340;2023-06-10T14:47:32;7.87;;;7.47;;
485;SDS011;229;48.734;9.340;2023-06-10T14:49:59;20.90;;;6.97;;
485;SDS011;229;48.734;9.340;2023-06-10T14:52:26;7.50;;;7.10;;
485;SDS011;229;48.734;9.340;2023-06-10T14:54:53;7.73;;;6.80;;
485;SDS011;229;48.734;9.340;2023-06-10T14:57:21;7.43;;;7.10;;
485;SDS011;229;48.734;9.340;2023-06-10T14:59:49;7.77;;;6.53;;
485;SDS011;229;48.734;9.340;2023-06-10T15:02:16;7.37;;;6.97;;
485;SDS011;229;48.734;9.340;2023-06-10T15:04:43;7.97;;;6.70;;
485;SDS011;229;48.734;9.340;2023-06-10T15:07:11;6.90;;;6.53;;
485;SDS011;229;48.734;9.340;2023-06-10T15:09:40;9.67;;;6.17;;
485;SDS011;229;48.734;9.340;2023-06-10T15:12:08;7.17;;;6.83;;
485;SDS011;229;48.734;9.340;2023-06-10T15:14:35;8.60;;;6.90;;
485;SDS011;229;48.734;9.340;2023-06-10T15:17:04;8.77;;;6.83;;
485;SDS011;229;48.734;9.340;2023-06-10T15:19:31;7.40;;;6.53;;
485;SDS011;229;48.734;9.340;2023-06-10T15:21:59;8.83;;;6.23;;
485;SDS011;229;48.734;9.340;2023-06-10T15:24:26;9.43;;;7.30;;
485;SDS011;229;48.734;9.340;2023-06-10T15:26:53;6.07;;;5.83;;
485;SDS011;229;48.734;9.340;2023-06-10T15:29:20;7.00;;;6.60;;
485;SDS011;229;48.734;9.340;2023-06-10T15:31:47;6.83;;;6.43;;
485;SDS011;229;48.734;9.340;2023-06-10T15:34:16;6.40;;;5.33;;
485;SDS011;229;48.734;9.340;2023-06-10T15:36:43;6.43;;;6.03;;
485;SDS011;229;48.734;9.340;2023-06-10T15:39:10;5.93;;;5.63;;
485;SDS011;229;48.734;9.340;2023-06-10T15:41:37;6.17;;;5.93;;
485;SDS011;229;48.734;9.340;2023-06-10T15:44:04;7.63;;;6.10;;
485;SDS011;229;48.734;9.340;2023-06-10T15:46:32;6.03;;;5.73;;
485;SDS011;229;48.734;9.340;2023-06-10T15:49:00;5.87;;;5.57;;
485;SDS011;229;48.734;9.340;2023-06-10T15:51:28;6.47;;;6.07;;